createdAt,value
2022-08-29T00:02:09.384Z,16.34
2022-08-29T00:04:58.758Z,16.30
2022-08-29T00:07:46.810Z,16.39
2022-08-29T00:10:37.663Z,16.33
2022-08-29T00:13:25.461Z,16.28
2022-08-29T00:16:13.481Z,16.33
2022-08-29T00:19:01.279Z,16.32
2022-08-29T00:21:50.061Z,16.31
2022-08-29T00:24:37.890Z,16.24
2022-08-29T00:27:25.796Z,16.22
2022-08-29T00:30:15.254Z,16.22
2022-08-29T00:33:03.613Z,16.18
2022-08-29T00:35:51.441Z,16.20
2022-08-29T00:38:39.424Z,16.13
2022-08-29T00:41:29.793Z,16.13
2022-08-29T00:44:17.817Z,16.08
2022-08-29T00:47:12.488Z,15.93
2022-08-29T00:50:02.612Z,15.99
2022-08-29T00:52:50.743Z,15.95
2022-08-29T00:55:40.450Z,15.90
2022-08-29T00:58:36.456Z,15.90
2022-08-29T01:01:24.348Z,15.87
2022-08-29T01:04:15.706Z,15.80
2022-08-29T01:07:04.295Z,15.75
2022-08-29T01:09:53.012Z,15.57
2022-08-29T01:12:41.323Z,15.65
2022-08-29T01:15:31.664Z,15.72
2022-08-29T01:18:20.399Z,15.62
2022-08-29T01:21:22.457Z,15.64
2022-08-29T01:24:15.621Z,15.68
2022-08-29T01:27:03.773Z,15.59
2022-08-29T01:29:51.610Z,15.60
2022-08-29T01:32:39.650Z,15.50
2022-08-29T01:35:28.349Z,15.54
2022-08-29T01:38:27.581Z,15.54
2022-08-29T01:41:18.182Z,15.41
2022-08-29T01:44:13.508Z,15.42
2022-08-29T01:47:03.380Z,15.34
2022-08-29T01:49:52.635Z,15.27
2022-08-29T01:52:43.155Z,15.30
2022-08-29T01:55:30.974Z,15.21
2022-08-29T01:58:18.883Z,15.22
2022-08-29T02:01:07.850Z,15.18
2022-08-29T02:03:56.030Z,15.26
2022-08-29T02:06:44.957Z,15.31
2022-08-29T02:09:32.761Z,15.21
2022-08-29T02:12:21.621Z,15.23
2022-08-29T02:15:10.587Z,15.27
2022-08-29T02:17:58.356Z,15.13
2022-08-29T02:20:46.489Z,15.13
2022-08-29T02:23:37.615Z,15.07
2022-08-29T02:26:25.681Z,15.07
2022-08-29T02:29:13.468Z,15.04
2022-08-29T02:32:01.977Z,14.97
2022-08-29T02:34:49.830Z,14.88
2022-08-29T02:37:37.716Z,14.85
2022-08-29T02:40:31.461Z,14.84
2022-08-29T02:43:21.450Z,14.70
2022-08-29T02:46:15.957Z,14.81
2022-08-29T02:49:04.360Z,14.66
2022-08-29T02:51:52.179Z,14.61
2022-08-29T02:54:40.043Z,14.57
2022-08-29T02:57:27.885Z,14.49
2022-08-29T03:00:21.904Z,14.47
2022-08-29T03:03:10.136Z,14.39
2022-08-29T03:05:58.556Z,14.36
2022-08-29T03:08:46.559Z,14.29
2022-08-29T03:11:34.880Z,14.26
2022-08-29T03:14:24.229Z,14.19
2022-08-29T03:17:12.116Z,14.12
2022-08-29T03:20:00.041Z,14.04
2022-08-29T03:22:49.133Z,14.01
2022-08-29T03:25:37.357Z,14.01
2022-08-29T03:28:25.715Z,13.92
2022-08-29T03:31:14.168Z,13.89
2022-08-29T03:34:01.997Z,13.80
2022-08-29T03:36:49.843Z,13.75
2022-08-29T03:39:38.020Z,13.70
2022-08-29T03:42:25.972Z,13.67
2022-08-29T03:45:17.548Z,13.64
2022-08-29T03:48:05.812Z,13.71
2022-08-29T03:50:56.445Z,13.58
2022-08-29T03:53:45.692Z,13.57
2022-08-29T03:56:35.258Z,13.26
2022-08-29T03:59:24.132Z,13.46
2022-08-29T04:02:12.082Z,13.44
2022-08-29T04:05:08.942Z,13.45
2022-08-29T04:07:59.591Z,13.46
2022-08-29T04:10:47.360Z,13.46
2022-08-29T04:13:35.284Z,13.40
2022-08-29T04:16:30.402Z,13.29
2022-08-29T04:19:20.951Z,13.34
2022-08-29T04:22:08.804Z,13.42
2022-08-29T04:24:56.653Z,13.34
2022-08-29T04:27:45.084Z,13.41
2022-08-29T04:30:33.312Z,13.35
2022-08-29T04:33:25.691Z,13.29
2022-08-29T04:36:15.054Z,13.22
2022-08-29T04:39:03.989Z,13.27
2022-08-29T04:41:51.823Z,13.17
2022-08-29T04:44:40.094Z,13.31
2022-08-29T04:47:27.954Z,13.30
2022-08-29T04:50:20.255Z,13.42
2022-08-29T04:53:08.119Z,13.43
2022-08-29T04:56:03.341Z,13.59
2022-08-29T04:58:52.101Z,13.56
2022-08-29T05:01:43.117Z,13.58
2022-08-29T05:04:30.995Z,13.59
2022-08-29T05:07:25.465Z,13.61
2022-08-29T05:10:17.595Z,13.72
2022-08-29T05:13:05.412Z,13.71
2022-08-29T05:15:53.284Z,13.87
2022-08-29T05:18:41.678Z,13.99
2022-08-29T05:21:35.996Z,14.20
2022-08-29T05:24:24.241Z,14.33
2022-08-29T05:27:19.621Z,14.40
2022-08-29T05:30:08.633Z,14.49
2022-08-29T05:32:56.521Z,14.49
2022-08-29T05:35:45.106Z,14.54
2022-08-29T05:38:33.249Z,14.58
2022-08-29T05:41:21.126Z,14.68
2022-08-29T05:44:08.964Z,14.87
2022-08-29T05:46:56.793Z,14.99
2022-08-29T05:49:46.578Z,15.18
2022-08-29T05:52:34.383Z,15.30
2022-08-29T05:55:22.632Z,15.42
2022-08-29T05:58:12.343Z,15.61
2022-08-29T06:01:00.195Z,15.71
2022-08-29T06:03:50.386Z,15.88
2022-08-29T06:06:41.201Z,15.99
2022-08-29T06:09:29.070Z,16.21
2022-08-29T06:12:16.998Z,16.33
2022-08-29T06:15:05.991Z,16.42
2022-08-29T06:17:54.767Z,16.45
2022-08-29T06:20:42.630Z,16.71
2022-08-29T06:23:30.450Z,16.74
2022-08-29T06:26:19.737Z,16.81
2022-08-29T06:29:09.917Z,16.81
2022-08-29T06:31:59.291Z,16.96
2022-08-29T06:34:47.392Z,16.98
2022-08-29T06:37:35.197Z,17.13
2022-08-29T06:40:23.222Z,17.10
2022-08-29T06:43:11.067Z,16.98
2022-08-29T06:45:59.452Z,17.18
2022-08-29T06:48:47.370Z,17.21
2022-08-29T06:51:41.873Z,17.09
2022-08-29T06:54:29.844Z,17.15
2022-08-29T06:57:17.692Z,17.28
2022-08-29T07:00:16.834Z,17.49
2022-08-29T07:03:11.084Z,17.75
2022-08-29T07:05:59.095Z,17.88
2022-08-29T07:08:55.662Z,18.02
2022-08-29T07:11:44.410Z,17.95
2022-08-29T07:14:32.439Z,18.12
2022-08-29T07:17:25.948Z,18.45
2022-08-29T07:20:15.353Z,18.72
2022-08-29T07:23:03.268Z,18.88
2022-08-29T07:25:51.113Z,19.13
2022-08-29T07:28:40.626Z,19.26
2022-08-29T07:31:33.531Z,19.20
2022-08-29T07:34:21.429Z,19.14
2022-08-29T07:37:10.841Z,19.04
2022-08-29T07:39:58.731Z,19.22
2022-08-29T07:42:46.710Z,19.29
2022-08-29T07:45:34.640Z,19.50
2022-08-29T07:48:24.020Z,19.57
2022-08-29T07:51:16.441Z,19.85
2022-08-29T07:54:06.489Z,20.10
2022-08-29T07:56:54.408Z,20.30
2022-08-29T07:59:42.362Z,20.41
2022-08-29T08:02:30.557Z,20.77
2022-08-29T08:05:20.090Z,20.93
2022-08-29T08:08:14.885Z,21.04
2022-08-29T08:11:07.977Z,20.89
2022-08-29T08:13:57.492Z,21.09
2022-08-29T08:16:45.900Z,21.29
2022-08-29T08:19:33.979Z,21.55
2022-08-29T08:22:22.006Z,21.54
2022-08-29T08:25:10.160Z,21.89
2022-08-29T08:27:59.471Z,22.33
2022-08-29T08:30:48.877Z,22.11
2022-08-29T08:33:39.055Z,22.29
2022-08-29T08:36:32.260Z,22.34
2022-08-29T08:39:22.717Z,22.41
2022-08-29T08:42:24.899Z,22.48
2022-08-29T08:45:27.002Z,22.24
2022-08-29T08:48:34.458Z,22.24
2022-08-29T08:51:29.416Z,22.44
2022-08-29T08:54:34.310Z,22.80
2022-08-29T08:57:22.953Z,22.86
2022-08-29T09:00:13.061Z,23.25
2022-08-29T09:03:18.373Z,23.15
2022-08-29T09:06:55.563Z,23.44
2022-08-29T09:10:16.289Z,23.67
2022-08-29T09:13:36.738Z,24.62
2022-08-29T09:16:34.969Z,25.35
2022-08-29T09:19:27.770Z,26.52
2022-08-29T09:22:32.811Z,26.34
2022-08-29T09:25:27.892Z,27.02
2022-08-29T09:28:18.187Z,27.55
2022-08-29T09:31:32.907Z,28.18
2022-08-29T09:35:06.918Z,28.63
2022-08-29T09:38:01.140Z,28.93
2022-08-29T09:41:01.247Z,29.41
2022-08-29T09:43:52.708Z,29.44
2022-08-29T09:46:42.845Z,29.68
2022-08-29T09:49:32.450Z,29.72
2022-08-29T09:52:26.620Z,30.25
2022-08-29T09:55:23.973Z,30.70
2022-08-29T09:58:34.246Z,30.24
2022-08-29T10:01:28.803Z,29.87
2022-08-29T10:04:40.562Z,29.88
2022-08-29T10:07:45.917Z,30.37
2022-08-29T10:10:54.907Z,30.24
2022-08-29T10:13:58.776Z,30.62
2022-08-29T10:17:42.174Z,30.96
2022-08-29T10:21:10.398Z,30.58
2022-08-29T10:24:57.937Z,30.95
2022-08-29T10:28:06.325Z,30.61
2022-08-29T10:31:33.920Z,30.48
2022-08-29T10:35:06.540Z,27.84
2022-08-29T10:38:28.954Z,26.64
2022-08-29T10:41:57.097Z,26.36
2022-08-29T10:45:14.940Z,25.46
2022-08-29T10:48:29.838Z,24.50
2022-08-29T10:51:42.025Z,24.20
2022-08-29T10:55:06.714Z,23.83
2022-08-29T10:58:21.881Z,23.53
2022-08-29T11:01:38.779Z,23.56
2022-08-29T11:04:39.517Z,23.66
2022-08-29T11:07:42.649Z,23.68
2022-08-29T11:10:40.598Z,23.60
2022-08-29T11:13:48.129Z,23.39
2022-08-29T11:16:50.599Z,23.30
2022-08-29T11:19:50.224Z,23.27
2022-08-29T11:23:00.409Z,23.23
2022-08-29T11:25:51.237Z,23.27
2022-08-29T11:29:37.515Z,23.35
2022-08-29T11:32:56.255Z,23.47
2022-08-29T11:36:43.363Z,23.59
2022-08-29T11:40:10.193Z,23.65
2022-08-29T11:43:02.556Z,23.69
2022-08-29T11:46:07.537Z,23.57
2022-08-29T11:49:27.858Z,23.45
2022-08-29T11:52:25.636Z,23.52
2022-08-29T11:55:31.814Z,23.54
2022-08-29T11:58:22.767Z,23.67
2022-08-29T12:01:34.346Z,23.67
2022-08-29T12:05:03.524Z,23.50
2022-08-29T12:08:38.430Z,23.64
2022-08-29T12:12:14.152Z,23.79
2022-08-29T12:15:32.416Z,23.92
2022-08-29T12:18:20.359Z,23.79
2022-08-29T12:21:37.718Z,23.80
2022-08-29T12:24:42.993Z,23.83
2022-08-29T12:28:20.832Z,23.91
2022-08-29T12:32:08.713Z,23.89
2022-08-29T12:35:47.401Z,23.89
2022-08-29T12:39:09.215Z,24.02
2022-08-29T12:42:39.988Z,24.12
2022-08-29T12:45:32.732Z,24.22
2022-08-29T12:48:32.342Z,24.19
2022-08-29T12:51:42.617Z,24.19
2022-08-29T12:54:42.001Z,24.26
2022-08-29T12:57:38.948Z,24.32
2022-08-29T13:00:33.909Z,24.19
2022-08-29T13:03:25.229Z,24.20
2022-08-29T13:06:15.596Z,24.17
2022-08-29T13:09:07.627Z,24.12
2022-08-29T13:12:21.888Z,24.11
2022-08-29T13:15:32.099Z,24.11
2022-08-29T13:18:23.665Z,24.17
2022-08-29T13:21:27.185Z,24.29
2022-08-29T13:24:21.664Z,24.39
2022-08-29T13:27:14.506Z,24.33
2022-08-29T13:30:04.679Z,24.50
2022-08-29T13:32:55.860Z,24.63
2022-08-29T13:35:45.490Z,24.60
2022-08-29T13:38:37.959Z,24.57
2022-08-29T13:41:31.076Z,24.64
2022-08-29T13:44:30.999Z,24.59
2022-08-29T13:47:33.584Z,24.66
2022-08-29T13:50:23.962Z,24.66
2022-08-29T13:53:15.808Z,24.59
2022-08-29T13:56:21.506Z,24.55
2022-08-29T13:59:12.918Z,24.56
2022-08-29T14:02:09.488Z,24.55
2022-08-29T14:04:59.418Z,24.60
2022-08-29T14:07:48.999Z,24.61
2022-08-29T14:10:41.563Z,24.54
2022-08-29T14:13:33.356Z,24.57
2022-08-29T14:16:25.004Z,24.55
2022-08-29T14:19:16.832Z,24.50
2022-08-29T14:22:07.480Z,24.77
2022-08-29T14:24:57.903Z,24.82
2022-08-29T14:27:48.178Z,24.77
2022-08-29T14:30:41.148Z,24.79
2022-08-29T14:33:43.067Z,24.82
2022-08-29T14:36:38.578Z,24.87
2022-08-29T14:39:35.939Z,24.93
2022-08-29T14:42:25.799Z,24.90
2022-08-29T14:45:15.964Z,24.95
2022-08-29T14:48:06.852Z,24.97
2022-08-29T14:50:57.638Z,25.14
2022-08-29T14:53:54.225Z,25.10
2022-08-29T14:56:48.750Z,25.13
2022-08-29T14:59:42.797Z,25.10
2022-08-29T15:02:32.453Z,25.07
2022-08-29T15:05:22.485Z,25.13
2022-08-29T15:08:15.805Z,25.08
2022-08-29T15:11:13.490Z,25.14
2022-08-29T15:14:04.385Z,25.23
2022-08-29T15:16:54.547Z,25.14
2022-08-29T15:20:31.539Z,25.05
2022-08-29T15:22:56.849Z,25.05
2022-08-29T15:25:51.868Z,25.13
2022-08-29T15:28:45.773Z,25.14
2022-08-29T15:31:35.305Z,25.14
2022-08-29T15:34:31.137Z,25.21
2022-08-29T15:37:21.992Z,25.24
2022-08-29T15:40:13.334Z,25.31
2022-08-29T15:43:03.492Z,25.13
2022-08-29T15:45:53.491Z,25.19
2022-08-29T15:48:46.551Z,25.22
2022-08-29T15:51:36.461Z,25.14
2022-08-29T15:54:26.639Z,25.08
2022-08-29T15:57:15.095Z,25.06
2022-08-29T16:00:10.258Z,25.08
2022-08-29T16:03:02.894Z,24.97
2022-08-29T16:05:53.677Z,24.90
2022-08-29T16:08:46.836Z,24.85
2022-08-29T16:11:37.131Z,24.73
2022-08-29T16:14:58.176Z,24.77
2022-08-29T16:17:41.376Z,24.79
2022-08-29T16:20:32.796Z,24.83
2022-08-29T16:23:24.241Z,24.84
2022-08-29T16:26:13.738Z,24.74
2022-08-29T16:29:06.449Z,24.72
2022-08-29T16:32:01.218Z,24.78
2022-08-29T16:34:52.438Z,24.73
2022-08-29T16:37:45.146Z,24.78
2022-08-29T16:40:36.900Z,24.72
2022-08-29T16:43:27.733Z,24.67
2022-08-29T16:46:21.561Z,24.57
2022-08-29T16:49:11.186Z,24.39
2022-08-29T16:52:03.686Z,24.57
2022-08-29T16:54:56.987Z,24.58
2022-08-29T16:58:06.129Z,24.46
2022-08-29T17:01:00.287Z,24.48
2022-08-29T17:03:48.554Z,24.38
2022-08-29T17:06:39.716Z,24.36
2022-08-29T17:09:27.798Z,24.30
2022-08-29T17:12:16.301Z,24.29
2022-08-29T17:15:04.853Z,24.26
2022-08-29T17:17:55.283Z,24.25
2022-08-29T17:20:46.275Z,24.23
2022-08-29T17:23:38.336Z,24.19
2022-08-29T17:26:28.991Z,24.13
2022-08-29T17:29:17.590Z,24.10
2022-08-29T17:32:09.892Z,24.03
2022-08-29T17:35:01.914Z,24.04
2022-08-29T17:37:52.081Z,23.94
2022-08-29T17:40:43.830Z,23.93
2022-08-29T17:43:36.422Z,23.97
2022-08-29T17:46:29.441Z,23.85
2022-08-29T17:49:19.992Z,23.79
2022-08-29T17:52:11.169Z,23.78
2022-08-29T17:55:06.620Z,23.73
2022-08-29T17:57:59.197Z,23.60
2022-08-29T18:00:49.725Z,23.54
2022-08-29T18:03:40.651Z,23.49
2022-08-29T18:06:32.513Z,23.49
2022-08-29T18:09:25.839Z,23.46
2022-08-29T18:12:17.891Z,23.42
2022-08-29T18:15:09.273Z,23.39
2022-08-29T18:17:59.933Z,23.27
2022-08-29T18:20:50.797Z,23.19
2022-08-29T18:23:41.719Z,23.10
2022-08-29T18:26:32.026Z,23.05
2022-08-29T18:29:21.917Z,22.96
2022-08-29T18:32:11.708Z,22.81
2022-08-29T18:35:04.320Z,22.77
2022-08-29T18:37:54.970Z,22.69
2022-08-29T18:40:46.754Z,22.61
2022-08-29T18:43:40.764Z,22.43
2022-08-29T18:46:32.470Z,22.24
2022-08-29T18:49:40.842Z,22.00
2022-08-29T18:52:29.978Z,21.95
2022-08-29T18:55:19.906Z,21.81
2022-08-29T18:58:10.958Z,21.74
2022-08-29T19:01:11.304Z,21.65
2022-08-29T19:04:02.313Z,21.53
2022-08-29T19:06:50.380Z,21.46
2022-08-29T19:09:38.408Z,21.42
2022-08-29T19:12:26.422Z,21.36
2022-08-29T19:15:15.440Z,21.31
2022-08-29T19:18:06.877Z,21.27
2022-08-29T19:21:06.639Z,21.21
2022-08-29T19:23:55.877Z,21.12
2022-08-29T19:26:43.940Z,21.06
2022-08-29T19:29:31.978Z,20.98
2022-08-29T19:32:20.015Z,20.90
2022-08-29T19:35:10.976Z,20.68
2022-08-29T19:37:59.389Z,20.57
2022-08-29T19:40:48.643Z,20.38
2022-08-29T19:43:38.635Z,20.33
2022-08-29T19:46:27.519Z,20.35
2022-08-29T19:49:15.472Z,20.35
2022-08-29T19:52:04.167Z,20.27
2022-08-29T19:54:53.889Z,20.23
2022-08-29T19:57:43.840Z,20.22
2022-08-29T20:00:32.804Z,20.15
2022-08-29T20:03:20.879Z,20.24
2022-08-29T20:06:09.806Z,20.27
2022-08-29T20:08:58.455Z,20.26
2022-08-29T20:11:47.539Z,20.23
2022-08-29T20:14:35.533Z,20.23
2022-08-29T20:17:23.410Z,20.12
2022-08-29T20:20:18.676Z,20.13
2022-08-29T20:23:07.815Z,20.17
2022-08-29T20:25:55.805Z,20.11
2022-08-29T20:28:43.787Z,20.01
2022-08-29T20:31:32.440Z,19.98
2022-08-29T20:34:20.589Z,19.77
2022-08-29T20:37:08.758Z,19.83
2022-08-29T20:39:57.505Z,19.83
2022-08-29T20:42:45.527Z,19.74
2022-08-29T20:45:33.854Z,19.66
2022-08-29T20:48:22.275Z,19.63
2022-08-29T20:51:11.740Z,19.61
2022-08-29T20:53:59.661Z,19.57
2022-08-29T20:56:48.536Z,19.66
2022-08-29T20:59:39.351Z,19.67
2022-08-29T21:02:46.088Z,19.66
2022-08-29T21:05:43.147Z,19.63
2022-08-29T21:08:32.081Z,19.57
2022-08-29T21:11:20.964Z,19.51
2022-08-29T21:14:10.240Z,19.48
2022-08-29T21:16:58.494Z,19.42
2022-08-29T21:19:47.260Z,19.45
2022-08-29T21:22:35.318Z,19.39
2022-08-29T21:25:23.229Z,19.33
2022-08-29T21:28:13.987Z,19.21
2022-08-29T21:31:10.400Z,19.34
2022-08-29T21:34:00.359Z,19.23
2022-08-29T21:36:50.577Z,19.20
2022-08-29T21:39:38.460Z,19.09
2022-08-29T21:42:26.344Z,18.93
2022-08-29T21:45:14.280Z,18.93
2022-08-29T21:48:02.182Z,18.90
2022-08-29T21:50:55.738Z,18.86
2022-08-29T21:53:43.613Z,18.80
2022-08-29T21:56:33.134Z,18.75
2022-08-29T21:59:21.816Z,18.64
2022-08-29T22:02:09.878Z,18.34
2022-08-29T22:04:57.781Z,18.47
2022-08-29T22:07:46.009Z,18.44
2022-08-29T22:10:36.968Z,18.38
2022-08-29T22:13:24.810Z,18.37
2022-08-29T22:16:30.802Z,18.44
2022-08-29T22:19:19.077Z,18.42
2022-08-29T22:22:06.965Z,18.37
2022-08-29T22:24:54.822Z,18.48
2022-08-29T22:27:42.706Z,18.43
2022-08-29T22:30:32.415Z,18.48
2022-08-29T22:33:20.915Z,18.45
2022-08-29T22:36:13.109Z,18.43
2022-08-29T22:39:01.037Z,18.50
2022-08-29T22:41:48.911Z,18.49
2022-08-29T22:47:46.710Z,18.41
2022-08-29T22:50:36.153Z,18.37
2022-08-29T22:53:24.174Z,18.16
2022-08-29T22:56:12.024Z,18.35
2022-08-29T22:59:00.856Z,18.37
2022-08-29T23:01:49.188Z,18.34
2022-08-29T23:04:38.479Z,18.26
2022-08-29T23:07:26.642Z,18.25
2022-08-29T23:10:15.486Z,18.17
2022-08-29T23:13:03.508Z,18.03
2022-08-29T23:15:51.449Z,17.92
2022-08-29T23:18:39.572Z,17.69
2022-08-29T23:21:29.262Z,17.69
2022-08-29T23:24:18.532Z,17.64
2022-08-29T23:27:07.065Z,17.59
2022-08-29T23:29:55.036Z,17.39
2022-08-29T23:32:42.899Z,17.38
2022-08-29T23:35:30.729Z,17.28
2022-08-29T23:38:19.003Z,17.21
2022-08-29T23:41:07.193Z,16.95
2022-08-29T23:43:55.139Z,17.06
2022-08-29T23:46:43.085Z,16.94
2022-08-29T23:49:31.377Z,16.76
2022-08-29T23:52:19.377Z,16.88
2022-08-29T23:55:08.387Z,16.72
2022-08-29T23:57:56.240Z,16.62
